Time;durP1;ratioP1;P1;durP2;ratioP2;P2;SDS_P1;SDS_P2;PMS_P1;PMS_P2;Temp;Humidity;BMP_temperature;BMP_pressure;BME280_temperature;BME280_humidity;BME280_pressure;Samples;Min_cycle;Max_cycle;Signal;HPM_P1;HPM_P2
2020/12/17 00:01:05;;;;;;;37.30;10.63;;;;;;;;;;5076330;28;20469;-75
2020/12/17 00:03:31;;;;;;;28.80;10.60;;;;;;;;;;5076733;28;20417;-74
2020/12/17 00:05:56;;;;;;;25.97;10.53;;;6.80;1.00;;;;;;5074998;28;20428;-74
2020/12/17 00:08:22;;;;;;;25.90;9.97;;;6.80;1.00;;;;;;5082077;28;20922;-74
2020/12/17 00:10:47;;;;;;;26.73;10.50;;;6.80;1.00;;;;;;5089380;28;20175;-74
2020/12/17 00:13:13;;;;;;;27.57;10.47;;;6.90;1.00;;;;;;5075837;28;20577;-75
2020/12/17 00:15:39;;;;;;;20.60;9.77;;;6.90;1.00;;;;;;5077197;28;20168;-75
2020/12/17 00:18:04;;;;;;;23.57;10.87;;;6.90;1.00;;;;;;5076864;28;20187;-75
2020/12/17 00:20:30;;;;;;;26.87;10.10;;;6.80;1.00;;;;;;5076137;28;20504;-75
2020/12/17 00:22:55;;;;;;;20.83;9.97;;;6.80;1.00;;;;;;5077322;28;20172;-75
2020/12/17 00:25:21;;;;;;;25.40;11.00;;;6.80;1.00;;;;;;5078895;28;20190;-75
2020/12/17 00:27:47;;;;;;;27.17;11.30;;;;;;;;;;5096426;28;20163;-75
2020/12/17 00:30:14;;;;;;;39.00;10.13;;;6.80;1.00;;;;;;5085613;28;20208;-75
2020/12/17 00:32:41;;;;;;;33.60;9.63;;;6.80;1.00;;;;;;5076297;28;20906;-74
2020/12/17 00:35:09;;;;;;;44.97;10.53;;;6.80;1.00;;;;;;5075679;28;20389;-74
2020/12/17 00:37:35;;;;;;;39.47;10.47;;;6.80;1.00;;;;;;5076861;28;20413;-74
2020/12/17 00:40:05;;;;;;;53.17;10.33;;;6.80;1.00;;;;;;5075736;28;20409;-74
2020/12/17 00:42:30;;;;;;;32.93;10.17;;;6.80;1.00;;;;;;5075791;28;20389;-74
2020/12/17 00:44:56;;;;;;;23.50;9.83;;;8.90;1.00;;;;;;5075508;28;20750;-74
2020/12/17 00:47:21;;;;;;;20.87;10.30;;;6.80;1.00;;;;;;5086343;28;20171;-75
2020/12/17 00:49:47;;;;;;;34.73;10.83;;;6.80;1.00;;;;;;5075596;28;20195;-75
2020/12/17 00:52:12;;;;;;;32.20;10.70;;;6.90;1.00;;;;;;5075569;28;20286;-76
2020/12/17 00:54:39;;;;;;;26.00;9.63;;;6.90;1.00;;;;;;5091562;28;20198;-75
2020/12/17 00:57:05;;;;;;;24.87;10.67;;;8.60;1.00;;;;;;5075320;28;20232;-75
2020/12/17 00:59:31;;;;;;;19.93;9.93;;;6.90;1.00;;;;;;5075316;28;20424;-76
2020/12/17 01:01:57;;;;;;;32.70;11.47;;;6.90;1.00;;;;;;5075296;28;20789;-76
2020/12/17 01:04:22;;;;;;;23.77;10.80;;;6.90;1.00;;;;;;5075709;28;20198;-74
2020/12/17 01:06:48;;;;;;;20.67;9.93;;;6.90;1.00;;;;;;5075234;28;20182;-75
2020/12/17 01:09:14;;;;;;;22.13;9.13;;;6.90;1.00;;;;;;5075112;28;20353;-75
2020/12/17 01:11:39;;;;;;;31.20;11.03;;;7.00;1.00;;;;;;5075329;28;20223;-75
2020/12/17 01:14:05;;;;;;;26.97;10.80;;;7.00;1.00;;;;;;5075010;28;20159;-74
2020/12/17 01:16:31;;;;;;;32.57;10.53;;;;;;;;;;5077438;28;20179;-74
2020/12/17 01:18:57;;;;;;;32.33;10.50;;;6.90;1.00;;;;;;5095736;28;20182;-75
2020/12/17 01:21:22;;;;;;;29.87;10.70;;;9.30;1.00;;;;;;5083536;28;20449;-76
2020/12/17 01:23:48;;;;;;;34.67;11.40;;;7.90;1.00;;;;;;5075025;28;20186;-77
2020/12/17 01:26:14;;;;;;;31.20;10.20;;;6.80;1.00;;;;;;5079555;28;20182;-76
2020/12/17 01:28:41;;;;;;;24.70;9.17;;;6.70;1.00;;;;;;5074478;28;20262;-76
2020/12/17 01:31:11;;;;;;;24.00;10.20;;;6.70;1.00;;;;;;5075061;28;20202;-76
2020/12/17 01:33:38;;;;;;;22.60;10.67;;;6.60;1.00;;;;;;5080443;28;20408;-74
2020/12/17 01:36:08;;;;;;;29.20;9.10;;;6.60;1.00;;;;;;5079389;28;20434;-74
2020/12/17 01:38:34;;;;;;;26.43;9.37;;;6.60;1.00;;;;;;5074420;28;20504;-74
2020/12/17 01:41:01;;;;;;;20.07;7.87;;;6.50;1.00;;;;;;5084472;28;20409;-75
2020/12/17 01:43:26;;;;;;;46.47;10.03;;;6.40;1.00;;;;;;5074431;28;20803;-74
2020/12/17 01:45:53;;;;;;;19.70;9.60;;;6.40;1.00;;;;;;5074242;28;20428;-75
2020/12/17 01:48:20;;;;;;;19.20;8.60;;;6.30;1.00;;;;;;5084105;28;20189;-74
2020/12/17 01:50:47;;;;;;;24.17;9.43;;;6.20;1.00;;;;;;5087876;28;20409;-75
2020/12/17 01:53:13;;;;;;;25.33;9.50;;;6.20;1.00;;;;;;5073979;28;20183;-75
2020/12/17 01:55:39;;;;;;;16.13;8.77;;;6.20;1.00;;;;;;5073872;28;20932;-74
2020/12/17 01:58:06;;;;;;;23.05;9.18;;;6.00;1.00;;;;;;5074246;28;20448;-75
2020/12/17 02:00:37;;;;;;;20.35;9.60;;;6.00;1.00;;;;;;5084932;28;20660;-75
2020/12/17 02:03:04;;;;;;;31.50;9.47;;;6.00;1.00;;;;;;5081385;28;20208;-74
2020/12/17 02:05:30;;;;;;;41.40;9.47;;;5.90;1.00;;;;;;5085569;28;20714;-74
2020/12/17 02:08:00;;;;;;;26.02;9.50;;;5.70;1.00;;;;;;5073210;28;20425;-74
2020/12/17 02:10:29;;;;;;;19.67;9.25;;;5.80;1.00;;;;;;5073708;28;20234;-75
2020/12/17 02:12:54;;;;;;;30.67;9.15;;;5.70;1.00;;;;;;5073674;28;20198;-74
2020/12/17 02:15:21;;;;;;;28.30;8.30;;;5.60;1.00;;;;;;5073940;28;20232;-74
2020/12/17 02:17:48;;;;;;;24.55;9.35;;;5.60;1.00;;;;;;5073098;28;20156;-74
2020/12/17 02:20:14;;;;;;;18.40;7.15;;;6.60;1.00;;;;;;5091158;28;20194;-76
2020/12/17 02:22:40;;;;;;;18.30;7.60;;;5.40;1.00;;;;;;5073847;28;20194;-76
2020/12/17 02:25:08;;;;;;;22.98;7.85;;;5.40;1.00;;;;;;5081350;28;20186;-76
2020/12/17 02:27:34;;;;;;;23.58;7.97;;;5.30;1.00;;;;;;5081251;28;20167;-75
2020/12/17 02:30:02;;;;;;;18.93;7.97;;;5.30;1.00;;;;;;5077066;28;20182;-75
2020/12/17 02:32:27;;;;;;;16.80;8.05;;;5.20;1.00;;;;;;5089897;28;20237;-75
2020/12/17 02:34:53;;;;;;;18.70;8.37;;;5.10;1.00;;;;;;5094377;28;20186;-75
2020/12/17 02:37:19;;;;;;;14.33;7.90;;;5.00;1.00;;;;;;5074639;28;20540;-76
2020/12/17 02:39:44;;;;;;;17.20;8.33;;;5.00;1.00;;;;;;5073280;28;20167;-75
2020/12/17 02:42:10;;;;;;;12.87;7.77;;;4.90;1.00;;;;;;5073523;28;20666;-75
2020/12/17 02:44:36;;;;;;;13.40;7.20;;;4.80;1.00;;;;;;5074145;28;20538;-76
2020/12/17 02:47:01;;;;;;;14.70;6.77;;;4.80;1.00;;;;;;5073594;28;20163;-76
2020/12/17 02:49:27;;;;;;;13.07;7.13;;;4.70;1.00;;;;;;5073772;28;20187;-75
2020/12/17 02:51:53;;;;;;;16.73;7.17;;;;;;;;;;5072956;28;20194;-76
2020/12/17 02:54:18;;;;;;;17.63;8.40;;;4.60;1.00;;;;;;5074641;28;20244;-76
2020/12/17 02:56:44;;;;;;;13.27;6.60;;;4.50;1.00;;;;;;5075969;28;20415;-75
2020/12/17 02:59:10;;;;;;;19.17;7.60;;;4.50;1.00;;;;;;5073317;28;20156;-75
2020/12/17 03:01:35;;;;;;;12.23;6.60;;;4.50;1.00;;;;;;5072911;28;20184;-76
2020/12/17 03:04:01;;;;;;;10.47;5.53;;;;;;;;;;5073364;28;20179;-74
2020/12/17 03:06:27;;;;;;;13.47;6.30;;;4.40;1.00;;;;;;5072840;28;20221;-74
2020/12/17 03:08:52;;;;;;;13.67;6.27;;;4.40;1.00;;;;;;5088346;28;20918;-74
2020/12/17 03:11:18;;;;;;;12.47;5.90;;;4.30;1.00;;;;;;5081898;28;20198;-74
2020/12/17 03:13:43;;;;;;;9.90;6.07;;;4.30;1.00;;;;;;5075009;28;20166;-74
2020/12/17 03:16:09;;;;;;;12.60;6.90;;;4.30;1.00;;;;;;5072852;28;20167;-74
2020/12/17 03:18:35;;;;;;;13.33;6.80;;;4.20;1.00;;;;;;5075477;28;20179;-75
2020/12/17 03:21:01;;;;;;;11.53;6.33;;;;;;;;;;5084164;28;20186;-76
2020/12/17 03:23:26;;;;;;;14.03;7.20;;;;;;;;;;5072878;28;20195;-76
2020/12/17 03:25:52;;;;;;;14.30;7.00;;;;;;;;;;5072686;28;20802;-76
2020/12/17 03:28:18;;;;;;;11.40;5.90;;;;;;;;;;5073019;28;20401;-76
2020/12/17 03:30:44;;;;;;;16.90;6.83;;;;;;;;;;5072300;28;20414;-76
2020/12/17 03:33:10;;;;;;;13.53;7.10;;;4.00;1.00;;;;;;5072876;28;20543;-76
2020/12/17 03:35:36;;;;;;;10.03;5.57;;;4.00;1.00;;;;;;5072751;28;20432;-76
2020/12/17 03:38:01;;;;;;;11.97;5.87;;;4.00;1.00;;;;;;5073838;28;20185;-76
2020/12/17 03:40:28;;;;;;;14.40;5.70;;;4.00;1.00;;;;;;5072594;28;20206;-76
2020/12/17 03:42:54;;;;;;;14.25;6.80;;;3.90;1.00;;;;;;5072892;28;20566;-76
2020/12/17 03:45:21;;;;;;;13.18;6.03;;;3.90;1.00;;;;;;5072921;28;20202;-76
2020/12/17 03:47:46;;;;;;;12.80;5.95;;;3.90;1.00;;;;;;5088776;28;20632;-76
2020/12/17 03:50:12;;;;;;;13.30;5.50;;;3.80;1.00;;;;;;5091140;28;20162;-75
2020/12/17 03:52:38;;;;;;;14.30;6.80;;;;;;;;;;5072553;28;20225;-74
2020/12/17 03:55:05;;;;;;;13.70;5.73;;;3.90;1.00;;;;;;5076548;28;20167;-75
2020/12/17 03:57:31;;;;;;;15.43;7.47;;;3.80;1.00;;;;;;5072451;28;20413;-75
2020/12/17 03:59:57;;;;;;;10.53;5.77;;;3.80;1.00;;;;;;5084193;28;20166;-74
2020/12/17 04:02:22;;;;;;;12.83;6.70;;;3.80;1.00;;;;;;5092173;28;20889;-74
2020/12/17 04:04:48;;;;;;;9.87;6.33;;;3.80;1.00;;;;;;5093125;28;20289;-74
2020/12/17 04:07:15;;;;;;;19.53;6.57;;;3.80;1.00;;;;;;5073443;28;20320;-75
2020/12/17 04:09:41;;;;;;;11.32;6.07;;;3.70;1.00;;;;;;5077543;28;20182;-74
2020/12/17 04:12:07;;;;;;;12.38;5.65;;;3.70;1.00;;;;;;5072063;28;20612;-74
2020/12/17 04:14:33;;;;;;;14.40;5.85;;;3.70;1.00;;;;;;5072252;28;20246;-74
2020/12/17 04:16:59;;;;;;;16.20;6.77;;;3.60;1.00;;;;;;5072313;28;20254;-74
2020/12/17 04:19:24;;;;;;;10.47;5.10;;;3.60;1.00;;;;;;5072762;28;20236;-74
2020/12/17 04:21:50;;;;;;;11.17;6.03;;;3.60;1.00;;;;;;5072221;28;20217;-74
2020/12/17 04:24:15;;;;;;;13.40;5.90;;;3.60;1.00;;;;;;5074069;28;20194;-74
2020/12/17 04:26:41;;;;;;;11.47;5.77;;;3.60;1.00;;;;;;5082304;28;20527;-74
2020/12/17 04:29:07;;;;;;;10.90;5.00;;;3.50;1.00;;;;;;5092464;28;20162;-74
2020/12/17 04:31:32;;;;;;;8.07;4.83;;;3.50;1.00;;;;;;5078951;28;20730;-74
2020/12/17 04:33:58;;;;;;;14.87;7.20;;;3.50;1.00;;;;;;5072132;28;20168;-74
2020/12/17 04:36:24;;;;;;;12.00;5.90;;;3.50;1.00;;;;;;5072402;28;20183;-75
2020/12/17 04:38:51;;;;;;;12.73;6.38;;;;;;;;;;5072390;28;20203;-75
2020/12/17 04:41:18;;;;;;;17.20;7.47;;;3.50;1.00;;;;;;5072907;28;20181;-75
2020/12/17 04:43:45;;;;;;;18.42;7.97;;;3.50;1.00;;;;;;5094497;28;20177;-75
2020/12/17 04:46:14;;;;;;;15.23;5.80;;;3.50;1.00;;;;;;5084017;28;20181;-76
2020/12/17 04:48:41;;;;;;;19.27;6.28;;;3.50;1.00;;;;;;5095411;28;20300;-76
2020/12/17 04:51:07;;;;;;;15.45;5.88;;;3.50;1.00;;;;;;5086156;28;20234;-74
2020/12/17 04:53:36;;;;;;;12.10;5.87;;;3.50;1.00;;;;;;5075727;28;20256;-74
2020/12/17 04:56:01;;;;;;;10.57;5.70;;;3.40;1.00;;;;;;5075252;28;20200;-74
2020/12/17 04:58:30;;;;;;;11.17;5.13;;;3.40;1.00;;;;;;5083805;28;20248;-74
2020/12/17 05:00:56;;;;;;;9.60;5.20;;;3.40;1.00;;;;;;5085319;28;20405;-74
2020/12/17 05:03:23;;;;;;;13.63;5.53;;;3.40;1.00;;;;;;5075278;28;20539;-74
2020/12/17 05:05:52;;;;;;;21.30;10.07;;;3.40;1.00;;;;;;5074422;28;20901;-74
2020/12/17 05:08:23;;;;;;;22.30;8.93;;;3.40;1.00;;;;;;5075097;28;20493;-74
2020/12/17 05:10:49;;;;;;;17.05;7.95;;;3.50;1.00;;;;;;5082958;28;20526;-74
2020/12/17 05:13:18;;;;;;;15.33;6.80;;;3.50;1.00;;;;;;5079085;28;20170;-74
2020/12/17 05:15:44;;;;;;;13.25;6.93;;;3.40;1.00;;;;;;5077742;28;20784;-74
2020/12/17 05:18:10;;;;;;;14.07;6.45;;;;;;;;;;5075309;28;20163;-74
2020/12/17 05:20:38;;;;;;;18.23;6.90;;;3.40;1.00;;;;;;5073908;28;20651;-75
2020/12/17 05:23:05;;;;;;;13.18;6.72;;;3.40;1.00;;;;;;5075110;28;20171;-76
2020/12/17 05:25:32;;;;;;;12.60;6.35;;;3.40;1.00;;;;;;5074032;28;20277;-75
2020/12/17 05:28:00;;;;;;;13.35;5.43;;;3.40;1.00;;;;;;5080803;28;20196;-76
2020/12/17 05:30:35;;;;;;;15.90;6.53;;;3.40;1.00;;;;;;5088789;28;20163;-76
2020/12/17 05:33:02;;;;;;;16.08;6.32;;;3.50;1.00;;;;;;5087624;28;20286;-76
2020/12/17 05:35:35;;;;;;;14.82;5.53;;;3.50;1.00;;;;;;5091223;28;20518;-74
2020/12/17 05:38:06;;;;;;;13.13;5.70;;;3.50;1.00;;;;;;5074290;28;20179;-74
2020/12/17 05:40:42;;;;;;;18.35;6.18;;;3.60;1.00;;;;;;5077661;28;20166;-74
2020/12/17 05:43:08;;;;;;;17.88;7.80;;;3.60;1.00;;;;;;5092910;28;20420;-74
2020/12/17 05:45:37;;;;;;;15.57;7.28;;;3.60;1.00;;;;;;5082349;28;20177;-74
2020/12/17 05:48:10;;;;;;;13.50;6.70;;;3.60;1.00;;;;;;5094642;28;20162;-74
2020/12/17 05:50:54;;;;;;;14.35;6.50;;;3.60;1.00;;;;;;5095057;28;20162;-74
2020/12/17 05:53:22;;;;;;;18.65;5.97;;;3.60;1.00;;;;;;5093725;28;20174;-74
2020/12/17 05:55:51;;;;;;;11.07;5.85;;;3.60;1.00;;;;;;5083467;28;20168;-74
2020/12/17 05:58:17;;;;;;;14.02;6.60;;;3.70;1.00;;;;;;5074263;28;20155;-74
2020/12/17 06:00:43;;;;;;;12.87;6.20;;;3.70;1.00;;;;;;5073996;28;20159;-74
2020/12/17 06:03:12;;;;;;;23.90;7.13;;;3.80;1.00;;;;;;5077595;28;20167;-74
2020/12/17 06:05:44;;;;;;;15.35;6.30;;;3.80;1.00;;;;;;5074504;28;20163;-76
2020/12/17 06:08:16;;;;;;;9.65;5.05;;;3.80;1.00;;;;;;5077457;28;20506;-76
2020/12/17 06:10:48;;;;;;;13.50;5.10;;;3.90;1.00;;;;;;5075291;28;20171;-76
2020/12/17 06:13:15;;;;;;;14.48;6.43;;;3.90;1.00;;;;;;5076449;28;20226;-76
2020/12/17 06:15:44;;;;;;;15.52;7.00;;;4.00;1.00;;;;;;5073690;28;20177;-77
2020/12/17 06:18:12;;;;;;;13.35;6.57;;;4.00;1.00;;;;;;5074482;28;20175;-80
2020/12/17 06:20:40;;;;;;;16.95;6.57;;;4.00;1.00;;;;;;5078703;28;20170;-75
2020/12/17 06:23:09;;;;;;;12.52;6.50;;;6.40;1.00;;;;;;5073715;28;20167;-76
2020/12/17 06:25:36;;;;;;;13.68;5.85;;;4.10;1.00;;;;;;5083135;28;20194;-77
2020/12/17 06:28:01;;;;;;;20.33;6.57;;;4.10;1.00;;;;;;5085572;28;20637;-76
2020/12/17 06:30:32;;;;;;;15.60;6.00;;;4.10;1.00;;;;;;5097629;28;20273;-78
2020/12/17 06:32:59;;;;;;;17.75;6.35;;;4.20;1.00;;;;;;5083883;28;20188;-78
2020/12/17 06:35:28;;;;;;;18.17;6.53;;;4.20;1.00;;;;;;5093759;28;20204;-77
2020/12/17 06:44:38;;;;;;;18.25;6.18;;;4.20;1.00;;;;;;5093876;28;20213;-76
2020/12/17 06:47:04;;;;;;;14.30;6.40;;;4.20;1.00;;;;;;5094569;28;20178;-76
2020/12/17 06:49:31;;;;;;;13.50;6.70;;;4.30;1.00;;;;;;5094460;28;20392;-76
2020/12/17 06:52:09;;;;;;;16.17;6.50;;;4.30;1.00;;;;;;5094850;28;20530;-76
2020/12/17 06:54:55;;;;;;;12.85;5.50;;;4.30;1.00;;;;;;5098328;28;20518;-76
2020/12/17 06:57:23;;;;;;;16.27;7.50;;;4.40;1.00;;;;;;5093380;28;20155;-76
2020/12/17 07:00:08;;;;;;;18.60;6.50;;;4.40;1.00;;;;;;5084372;28;20186;-76
2020/12/17 07:02:41;;;;;;;19.88;8.25;;;4.40;1.00;;;;;;5073056;28;20159;-76
2020/12/17 07:05:31;;;;;;;13.45;5.85;;;4.30;1.00;;;;;;5078002;28;20652;-76
2020/12/17 07:08:02;;;;;;;17.33;6.72;;;4.40;1.00;;;;;;5072710;28;20151;-75
2020/12/17 07:10:33;;;;;;;17.20;6.68;;;4.40;1.00;;;;;;5080820;28;20171;-75
2020/12/17 07:12:59;;;;;;;15.70;6.93;;;4.40;1.00;;;;;;5091414;28;20664;-74
2020/12/17 07:15:38;;;;;;;14.10;6.93;;;4.40;1.00;;;;;;5093206;28;20178;-74
2020/12/17 07:18:23;;;;;;;17.63;7.38;;;4.40;1.00;;;;;;5073226;28;20449;-74
2020/12/17 07:21:06;;;;;;;17.00;6.93;;;4.40;1.00;;;;;;5077469;28;20563;-76
2020/12/17 07:23:36;;;;;;;17.60;7.30;;;4.40;1.00;;;;;;5076699;28;20174;-77
2020/12/17 07:26:07;;;;;;;13.23;6.60;;;4.40;1.00;;;;;;5084442;28;20186;-77
2020/12/17 07:28:33;;;;;;;21.00;7.68;;;4.40;1.00;;;;;;5094980;28;20200;-76
2020/12/17 07:31:00;;;;;;;17.80;6.97;;;;;;;;;;5080199;28;20648;-76
2020/12/17 07:33:43;;;;;;;25.05;7.43;;;4.50;1.00;;;;;;5072698;28;20609;-76
2020/12/17 07:36:10;;;;;;;19.58;7.53;;;4.50;1.00;;;;;;5091864;28;20178;-76
2020/12/17 07:38:36;;;;;;;11.55;6.78;;;4.50;1.00;;;;;;5092939;28;20159;-76
2020/12/17 07:41:03;;;;;;;26.52;8.23;;;4.50;1.00;;;;;;5092914;28;20186;-76
2020/12/17 07:43:39;;;;;;;23.17;6.30;;;4.50;1.00;;;;;;5091415;28;20265;-76
2020/12/17 07:46:05;;;;;;;18.73;7.07;;;4.60;1.00;;;;;;5080141;28;20174;-77
2020/12/17 07:48:51;;;;;;;16.60;6.63;;;4.60;1.00;;;;;;5087275;28;20267;-76
2020/12/17 07:51:17;;;;;;;16.42;6.28;;;4.70;1.00;;;;;;5076043;28;20198;-75
2020/12/17 07:53:44;;;;;;;16.57;6.73;;;4.70;1.00;;;;;;5077544;28;20175;-75
2020/12/17 07:56:11;;;;;;;20.70;8.43;;;4.80;1.00;;;;;;5093080;28;20606;-75
2020/12/17 07:58:37;;;;;;;15.70;6.95;;;4.80;1.00;;;;;;5092696;28;20170;-75
2020/12/17 08:01:04;;;;;;;20.17;7.57;;;4.90;1.00;;;;;;5078466;28;20175;-75
2020/12/17 08:03:39;;;;;;;20.88;7.95;;;5.00;1.00;;;;;;5072777;28;20174;-75
2020/12/17 08:06:06;;;;;;;19.67;8.50;;;5.10;1.00;;;;;;5087415;28;20166;-76
2020/12/17 08:08:32;;;;;;;18.63;7.45;;;5.20;1.00;;;;;;5091276;28;20181;-76
2020/12/17 08:10:59;;;;;;;13.77;7.45;;;;;;;;;;5072310;28;20560;-76
2020/12/17 08:13:26;;;;;;;16.67;7.53;;;5.40;1.00;;;;;;5072067;28;20179;-76
2020/12/17 08:15:52;;;;;;;15.05;7.32;;;5.40;1.00;;;;;;5071218;28;20203;-77
2020/12/17 08:18:26;;;;;;;22.98;8.00;;;5.40;1.00;;;;;;5076490;28;20332;-77
2020/12/17 08:21:11;;;;;;;14.48;7.40;;;5.50;1.00;;;;;;5078746;28;20586;-76
2020/12/17 08:23:39;;;;;;;18.30;8.13;;;5.50;1.00;;;;;;5096435;28;20161;-75
2020/12/17 08:26:06;;;;;;;13.60;7.03;;;5.60;1.00;;;;;;5096321;28;20186;-75
2020/12/17 08:28:33;;;;;;;16.10;7.25;;;5.60;1.00;;;;;;5096393;28;20200;-75
2020/12/17 08:31:06;;;;;;;17.37;8.37;;;5.70;1.00;;;;;;5096251;28;20178;-75
2020/12/17 08:33:34;;;;;;;17.00;7.73;;;5.70;1.00;;;;;;5096238;28;20427;-75
2020/12/17 08:36:02;;;;;;;22.50;8.57;;;5.80;1.00;;;;;;5096292;28;20412;-75
2020/12/17 08:38:27;;;;;;;15.85;8.05;;;5.80;1.00;;;;;;5096539;28;20922;-76
2020/12/17 08:40:56;;;;;;;20.37;7.93;;;5.80;1.00;;;;;;5096248;28;20178;-76
2020/12/17 08:43:26;;;;;;;15.27;7.27;;;5.80;1.00;;;;;;5095836;28;20269;-76
2020/12/17 08:45:52;;;;;;;15.77;8.50;;;;;;;;;;5083361;28;20412;-76
2020/12/17 08:48:19;;;;;;;19.40;7.90;;;6.00;1.00;;;;;;5096012;28;20479;-77
2020/12/17 08:50:46;;;;;;;14.37;7.57;;;6.10;1.00;;;;;;5084985;28;20397;-76
2020/12/17 08:53:19;;;;;;;23.33;8.23;;;6.20;1.00;;;;;;5075926;28;20444;-77
2020/12/17 08:56:00;;;;;;;21.27;9.13;;;6.30;1.00;;;;;;5080889;28;20744;-76
2020/12/17 08:58:26;;;;;;;16.10;8.30;;;6.40;1.00;;;;;;5078941;28;20421;-76
2020/12/17 09:00:52;;;;;;;15.60;7.90;;;;;;;;;;5090609;28;20953;-76
2020/12/17 09:03:19;;;;;;;15.90;7.97;;;;;;;;;;5086926;28;20527;-76
2020/12/17 09:06:00;;;;;;;21.13;8.00;;;6.70;1.00;;;;;;5086757;28;20431;-76
2020/12/17 09:08:25;;;;;;;17.30;7.35;;;6.60;1.00;;;;;;5095536;28;20416;-75
2020/12/17 09:10:51;;;;;;;16.07;8.40;;;;;;;;;;5079658;28;20594;-75
2020/12/17 09:13:17;;;;;;;18.10;8.10;;;6.80;1.00;;;;;;5085684;28;20202;-75
2020/12/17 09:15:43;;;;;;;21.00;8.40;;;6.90;1.00;;;;;;5085234;28;20429;-75
2020/12/17 09:18:09;;;;;;;17.93;8.60;;;6.90;1.00;;;;;;5074909;28;20439;-75
2020/12/17 09:20:35;;;;;;;14.30;7.57;;;;;;;;;;5084367;28;20182;-75
2020/12/17 09:23:10;;;;;;;15.70;7.97;;;7.00;1.00;;;;;;5091290;28;20447;-75
2020/12/17 09:25:36;;;;;;;16.10;8.00;;;7.00;1.00;;;;;;5089837;28;20535;-75
2020/12/17 09:28:22;;;;;;;18.63;8.50;;;7.10;1.00;;;;;;5089117;28;20507;-76
2020/12/17 09:34:16;;;;;;;15.47;8.43;;;7.10;1.00;;;;;;5084064;28;20449;-79
2020/12/17 09:37:02;;;;;;;23.00;9.47;;;7.20;1.00;;;;;;5081295;28;20427;-76
2020/12/17 09:39:49;;;;;;;14.00;7.93;;;7.10;1.00;;;;;;5096841;28;20427;-76
2020/12/17 09:42:26;;;;;;;18.10;7.93;;;7.20;1.00;;;;;;5087051;28;20412;-76
2020/12/17 09:44:51;;;;;;;15.87;8.00;;;7.20;1.00;;;;;;5094488;28;20496;-77
2020/12/17 09:47:32;;;;;;;17.20;8.57;;;7.30;1.00;;;;;;5075284;28;20448;-77
2020/12/17 09:50:16;;;;;;;13.77;7.30;;;7.30;1.00;;;;;;5075654;28;20540;-77
2020/12/17 09:52:43;;;;;;;16.17;7.80;;;7.30;1.00;;;;;;5087829;28;20457;-75
2020/12/17 09:55:25;;;;;;;15.38;7.82;;;7.40;1.00;;;;;;5090598;28;20420;-75
2020/12/17 09:57:55;;;;;;;14.07;7.03;;;7.40;1.00;;;;;;5090690;28;20242;-75
2020/12/17 10:00:43;;;;;;;9.43;5.90;;;7.50;1.00;;;;;;5086022;28;20440;-76
2020/12/17 10:04:01;;;;;;;14.80;6.90;;;8.40;1.00;;;;;;5082150;28;20496;-76
2020/12/17 10:06:44;;;;;;;24.10;10.47;;;9.10;1.00;;;;;;5074595;28;20385;-76
2020/12/17 10:09:43;;;;;;;23.93;11.40;;;9.40;1.00;;;;;;5077333;28;20872;-78
2020/12/17 10:12:09;;;;;;;17.17;7.80;;;9.50;1.00;;;;;;5093256;28;20455;-77
2020/12/17 10:14:49;;;;;;;11.60;6.93;;;9.90;1.00;;;;;;5074996;28;20414;-77
2020/12/17 10:17:19;;;;;;;10.93;6.63;;;9.80;1.00;;;;;;5074343;28;20159;-78
2020/12/17 10:20:13;;;;;;;15.37;7.27;;;10.00;1.00;;;;;;5091267;28;20520;-78
2020/12/17 10:22:44;;;;;;;14.30;8.03;;;10.10;1.00;;;;;;5078510;28;20413;-77
2020/12/17 10:25:10;;;;;;;12.67;7.40;;;10.10;1.00;;;;;;5091801;28;20428;-77
2020/12/17 10:27:36;;;;;;;13.13;6.83;;;10.50;1.00;;;;;;5098798;28;20461;-77
2020/12/17 10:30:37;;;;;;;12.30;7.40;;;10.50;1.00;;;;;;5105695;28;20471;-77
2020/12/17 10:33:19;;;;;;;17.23;7.90;;;10.40;1.00;;;;;;5115080;28;20186;-77
2020/12/17 10:35:45;;;;;;;14.77;8.50;;;10.30;1.00;;;;;;5093089;28;20423;-77
2020/12/17 10:38:37;;;;;;;11.93;7.50;;;10.20;1.00;;;;;;5099391;28;20444;-76
2020/12/17 10:41:03;;;;;;;17.50;8.77;;;10.10;1.00;;;;;;5085310;28;20187;-76
2020/12/17 10:43:31;;;;;;;14.03;7.10;;;10.20;1.00;;;;;;5093907;28;20478;-77
2020/12/17 10:46:08;;;;;;;16.57;8.47;;;10.00;1.00;;;;;;5079708;28;20533;-76
2020/12/17 10:48:33;;;;;;;17.20;8.10;;;9.90;1.00;;;;;;5076008;28;20395;-76
2020/12/17 10:50:59;;;;;;;19.03;9.23;;;9.80;1.00;;;;;;5081321;28;20812;-76
2020/12/17 10:53:24;;;;;;;18.13;8.97;;;9.50;1.00;;;;;;5074591;28;20198;-75
2020/12/17 10:55:50;;;;;;;22.07;9.67;;;9.50;1.00;;;;;;5083664;28;20188;-75
2020/12/17 10:58:16;;;;;;;20.33;9.03;;;10.00;1.00;;;;;;5074295;28;20183;-75
2020/12/17 11:00:41;;;;;;;15.63;9.03;;;9.20;1.00;;;;;;5075453;28;20646;-75
2020/12/17 11:03:07;;;;;;;17.13;8.30;;;9.10;1.00;;;;;;5091213;28;20308;-75
2020/12/17 11:05:35;;;;;;;15.33;8.50;;;9.00;1.00;;;;;;5091112;28;20660;-75
2020/12/17 11:08:01;;;;;;;18.63;8.50;;;9.00;1.00;;;;;;5086369;28;20428;-76
2020/12/17 11:10:31;;;;;;;16.87;8.57;;;9.00;1.00;;;;;;5076924;28;21026;-76
2020/12/17 11:12:57;;;;;;;18.20;8.70;;;9.10;1.00;;;;;;5072405;28;20210;-76
2020/12/17 11:15:23;;;;;;;17.43;9.40;;;10.90;1.00;;;;;;5080546;28;20824;-76
2020/12/17 11:17:49;;;;;;;16.90;8.70;;;;;;;;;;5086543;28;20174;-76
2020/12/17 11:20:17;;;;;;;20.03;8.67;;;;;;;;;;5082246;28;20171;-77
2020/12/17 11:22:43;;;;;;;17.87;8.70;;;;;;;;;;5079030;28;20804;-74
2020/12/17 11:25:09;;;;;;;14.27;8.73;;;8.90;1.00;;;;;;5081405;28;20444;-76
2020/12/17 11:27:37;;;;;;;17.60;8.67;;;10.90;1.00;;;;;;5091394;28;20480;-76
2020/12/17 11:30:08;;;;;;;25.57;10.03;;;8.80;1.00;;;;;;5078129;28;20461;-77
2020/12/17 11:32:34;;;;;;;19.87;9.47;;;8.80;1.00;;;;;;5092584;28;20436;-77
2020/12/17 11:35:00;;;;;;;20.20;8.97;;;8.80;1.00;;;;;;5087986;28;20408;-80
2020/12/17 11:37:26;;;;;;;18.43;9.40;;;10.70;1.00;;;;;;5093081;28;20820;-77
2020/12/17 11:40:13;;;;;;;20.10;8.63;;;8.70;1.00;;;;;;5080668;28;20493;-76
2020/12/17 11:42:50;;;;;;;18.97;9.83;;;8.70;1.00;;;;;;5073728;28;20385;-76
2020/12/17 11:45:32;;;;;;;18.47;9.33;;;8.60;1.00;;;;;;5073585;28;20446;-76
2020/12/17 11:48:08;;;;;;;20.60;9.30;;;8.60;1.00;;;;;;5073628;28;20957;-76
2020/12/17 11:50:43;;;;;;;16.50;8.53;;;9.90;1.00;;;;;;5074759;28;20397;-76
2020/12/17 11:53:20;;;;;;;17.87;9.57;;;8.50;1.00;;;;;;5078107;28;20433;-75
2020/12/17 11:55:46;;;;;;;29.53;9.13;;;8.50;1.00;;;;;;5077520;28;20389;-75
2020/12/17 11:58:12;;;;;;;17.67;8.87;;;8.50;1.00;;;;;;5077311;28;20401;-75
2020/12/17 12:00:38;;;;;;;19.20;9.40;;;;;;;;;;5082674;28;20412;-75
2020/12/17 12:03:08;;;;;;;20.67;10.07;;;8.80;1.00;;;;;;5082609;28;20915;-75
2020/12/17 12:05:37;;;;;;;41.33;10.13;;;8.80;1.00;;;;;;5077526;28;20940;-74
2020/12/17 12:08:03;;;;;;;20.53;10.63;;;9.00;1.00;;;;;;5077025;28;20900;-75
2020/12/17 12:10:50;;;;;;;18.33;9.20;;;9.10;1.00;;;;;;5077629;28;20392;-76
2020/12/17 12:13:43;;;;;;;19.63;9.53;;;9.10;1.00;;;;;;5077395;28;20222;-76
2020/12/17 12:16:43;;;;;;;18.80;9.60;;;9.20;1.00;;;;;;5077210;28;20390;-76
2020/12/17 12:19:20;;;;;;;16.70;9.30;;;9.30;1.00;;;;;;5089308;28;20557;-76
2020/12/17 12:21:49;;;;;;;20.47;10.17;;;9.40;1.00;;;;;;5097746;28;20392;-76
2020/12/17 12:24:15;;;;;;;17.17;8.67;;;9.50;1.00;;;;;;5078369;28;20424;-76
2020/12/17 12:27:01;;;;;;;19.00;10.33;;;9.50;1.00;;;;;;5079216;28;20429;-76
2020/12/17 12:29:32;;;;;;;18.83;9.33;;;9.40;1.00;;;;;;5097180;28;20219;-76
2020/12/17 12:36:09;;;;;;;18.20;9.30;;;9.50;1.00;;;;;;5076700;28;20746;-76
2020/12/17 12:38:39;;;;;;;18.03;9.10;;;9.60;1.00;;;;;;5080171;28;20408;-76
2020/12/17 12:41:05;;;;;;;25.53;9.43;;;9.80;1.00;;;;;;5097189;28;20463;-75
2020/12/17 12:43:37;;;;;;;18.43;9.40;;;9.90;1.00;;;;;;5090878;28;20775;-75
2020/12/17 12:46:03;;;;;;;18.50;9.03;;;9.90;1.00;;;;;;5077918;28;20757;-75
2020/12/17 12:48:38;;;;;;;18.90;9.93;;;10.10;1.00;;;;;;5096912;28;20388;-75
2020/12/17 12:51:08;;;;;;;18.97;9.87;;;10.10;1.00;;;;;;5096941;28;20158;-75
2020/12/17 12:53:55;;;;;;;22.07;9.50;;;10.20;1.00;;;;;;5097075;28;20732;-75
2020/12/17 12:56:25;;;;;;;18.20;9.53;;;10.30;1.00;;;;;;5095942;28;20918;-75
2020/12/17 12:59:08;;;;;;;17.90;8.87;;;10.40;1.00;;;;;;5094057;28;20404;-75
2020/12/17 13:01:39;;;;;;;19.60;9.50;;;10.40;1.00;;;;;;5096232;28;20769;-75
2020/12/17 13:04:43;;;;;;;17.93;9.03;;;10.40;1.00;;;;;;5092856;28;20423;-77
2020/12/17 13:07:43;;;;;;;15.80;8.90;;;10.40;1.00;;;;;;5088714;28;20423;-78
2020/12/17 13:10:43;;;;;;;15.80;8.90;;;10.30;1.00;;;;;;5116232;28;20391;-78
2020/12/17 13:13:09;;;;;;;14.10;8.90;;;10.30;1.00;;;;;;5086958;28;20448;-78
2020/12/17 13:19:49;;;;;;;17.43;8.90;;;10.40;1.00;;;;;;5096501;28;20265;-77
2020/12/17 13:22:15;;;;;;;18.63;9.00;;;10.30;1.00;;;;;;5081624;28;20437;-77
2020/12/17 13:24:40;;;;;;;19.00;9.27;;;10.20;1.00;;;;;;5076076;28;20507;-77
2020/12/17 13:27:21;;;;;;;17.10;8.43;;;10.40;1.00;;;;;;5082091;28;20177;-77
2020/12/17 13:29:50;;;;;;;14.70;9.23;;;10.30;1.00;;;;;;5093447;28;20686;-77
2020/12/17 13:36:08;;;;;;;17.90;9.97;;;10.20;1.00;;;;;;5075637;28;20459;-78
2020/12/17 13:38:34;;;;;;;18.10;9.33;;;10.10;1.00;;;;;;5075940;28;20397;-78